sensor_id;sensor_type;location;lat;lon;timestamp;temperature;humidity
54938;DHT22;52756;52.826;6.214;2023-11-22T00:01:29;7.10;88.90
54938;DHT22;52756;52.826;6.214;2023-11-22T00:03:54;7.10;88.90
54938;DHT22;52756;52.826;6.214;2023-11-22T00:06:20;7.10;89.00
54938;DHT22;52756;52.826;6.214;2023-11-22T00:08:46;7.10;89.00
54938;DHT22;52756;52.826;6.214;2023-11-22T00:11:12;7.10;89.00
54938;DHT22;52756;52.826;6.214;2023-11-22T00:13:39;7.10;89.10
54938;DHT22;52756;52.826;6.214;2023-11-22T00:16:04;7.10;89.20
54938;DHT22;52756;52.826;6.214;2023-11-22T00:18:30;7.10;89.10
54938;DHT22;52756;52.826;6.214;2023-11-22T00:20:56;7.10;89.20
54938;DHT22;52756;52.826;6.214;2023-11-22T00:23:23;7.10;89.20
54938;DHT22;52756;52.826;6.214;2023-11-22T00:25:53;7.10;89.20
54938;DHT22;52756;52.826;6.214;2023-11-22T00:28:18;7.10;89.20
54938;DHT22;52756;52.826;6.214;2023-11-22T00:30:44;7.10;89.20
54938;DHT22;52756;52.826;6.214;2023-11-22T00:33:10;7.10;89.30
54938;DHT22;52756;52.826;6.214;2023-11-22T00:35:36;7.10;89.30
54938;DHT22;52756;52.826;6.214;2023-11-22T00:38:01;7.10;89.30
54938;DHT22;52756;52.826;6.214;2023-11-22T00:40:27;7.10;89.30
54938;DHT22;52756;52.826;6.214;2023-11-22T00:42:52;7.00;89.20
54938;DHT22;52756;52.826;6.214;2023-11-22T00:45:18;7.10;89.20
54938;DHT22;52756;52.826;6.214;2023-11-22T00:47:44;7.30;89.40
54938;DHT22;52756;52.826;6.214;2023-11-22T00:50:09;7.10;89.30
54938;DHT22;52756;52.826;6.214;2023-11-22T00:52:35;7.00;89.20
54938;DHT22;52756;52.826;6.214;2023-11-22T00:55:01;7.00;89.20
54938;DHT22;52756;52.826;6.214;2023-11-22T00:57:26;7.10;89.10
54938;DHT22;52756;52.826;6.214;2023-11-22T00:59:53;7.00;88.80
54938;DHT22;52756;52.826;6.214;2023-11-22T01:02:19;7.00;88.80
54938;DHT22;52756;52.826;6.214;2023-11-22T01:04:46;7.00;88.70
54938;DHT22;52756;52.826;6.214;2023-11-22T01:07:11;6.90;88.60
54938;DHT22;52756;52.826;6.214;2023-11-22T01:09:37;6.90;88.60
54938;DHT22;52756;52.826;6.214;2023-11-22T01:12:02;7.00;88.70
54938;DHT22;52756;52.826;6.214;2023-11-22T01:14:28;6.90;88.60
54938;DHT22;52756;52.826;6.214;2023-11-22T01:16:54;6.90;88.60
54938;DHT22;52756;52.826;6.214;2023-11-22T01:19:20;6.90;88.60
54938;DHT22;52756;52.826;6.214;2023-11-22T01:21:46;6.90;88.60
54938;DHT22;52756;52.826;6.214;2023-11-22T01:24:12;6.90;88.60
54938;DHT22;52756;52.826;6.214;2023-11-22T01:26:37;6.80;88.60
54938;DHT22;52756;52.826;6.214;2023-11-22T01:29:04;6.80;88.60
54938;DHT22;52756;52.826;6.214;2023-11-22T01:31:30;6.80;88.60
54938;DHT22;52756;52.826;6.214;2023-11-22T01:33:56;6.80;88.50
54938;DHT22;52756;52.826;6.214;2023-11-22T01:36:22;6.80;88.60
54938;DHT22;52756;52.826;6.214;2023-11-22T01:38:47;6.80;88.50
54938;DHT22;52756;52.826;6.214;2023-11-22T01:41:13;6.70;88.40
54938;DHT22;52756;52.826;6.214;2023-11-22T01:43:39;6.70;88.30
54938;DHT22;52756;52.826;6.214;2023-11-22T01:46:14;6.70;88.30
54938;DHT22;52756;52.826;6.214;2023-11-22T01:48:41;6.70;88.40
54938;DHT22;52756;52.826;6.214;2023-11-22T01:51:06;6.70;88.30
54938;DHT22;52756;52.826;6.214;2023-11-22T01:53:34;6.60;88.30
54938;DHT22;52756;52.826;6.214;2023-11-22T01:56:00;6.60;88.30
54938;DHT22;52756;52.826;6.214;2023-11-22T01:58:26;6.90;88.50
54938;DHT22;52756;52.826;6.214;2023-11-22T02:00:53;6.60;88.30
54938;DHT22;52756;52.826;6.214;2023-11-22T02:03:18;6.60;88.30
54938;DHT22;52756;52.826;6.214;2023-11-22T02:05:45;6.60;88.20
54938;DHT22;52756;52.826;6.214;2023-11-22T02:08:11;6.60;88.20
54938;DHT22;52756;52.826;6.214;2023-11-22T02:10:37;6.50;88.10
54938;DHT22;52756;52.826;6.214;2023-11-22T02:13:06;6.50;88.00
54938;DHT22;52756;52.826;6.214;2023-11-22T02:15:37;6.50;88.00
54938;DHT22;52756;52.826;6.214;2023-11-22T02:18:03;6.60;88.00
54938;DHT22;52756;52.826;6.214;2023-11-22T02:20:32;6.40;87.90
54938;DHT22;52756;52.826;6.214;2023-11-22T02:23:11;6.40;87.90
54938;DHT22;52756;52.826;6.214;2023-11-22T02:25:37;6.40;88.00
54938;DHT22;52756;52.826;6.214;2023-11-22T02:28:03;6.70;88.10
54938;DHT22;52756;52.826;6.214;2023-11-22T02:30:29;6.40;87.90
54938;DHT22;52756;52.826;6.214;2023-11-22T02:32:54;6.30;87.90
54938;DHT22;52756;52.826;6.214;2023-11-22T02:35:20;6.30;87.90
54938;DHT22;52756;52.826;6.214;2023-11-22T02:37:45;6.30;87.90
54938;DHT22;52756;52.826;6.214;2023-11-22T02:40:21;6.30;87.90
54938;DHT22;52756;52.826;6.214;2023-11-22T02:42:51;6.20;87.90
54938;DHT22;52756;52.826;6.214;2023-11-22T02:45:18;6.20;87.90
54938;DHT22;52756;52.826;6.214;2023-11-22T02:47:44;6.20;87.90
54938;DHT22;52756;52.826;6.214;2023-11-22T02:50:12;6.20;87.90
54938;DHT22;52756;52.826;6.214;2023-11-22T02:52:38;6.10;87.90
54938;DHT22;52756;52.826;6.214;2023-11-22T02:55:04;6.10;87.90
54938;DHT22;52756;52.826;6.214;2023-11-22T02:57:30;6.10;88.00
54938;DHT22;52756;52.826;6.214;2023-11-22T02:59:57;6.10;87.90
54938;DHT22;52756;52.826;6.214;2023-11-22T03:02:23;6.20;87.90
54938;DHT22;52756;52.826;6.214;2023-11-22T03:04:49;6.00;87.70
54938;DHT22;52756;52.826;6.214;2023-11-22T03:07:15;6.00;87.70
54938;DHT22;52756;52.826;6.214;2023-11-22T03:09:41;6.00;87.60
54938;DHT22;52756;52.826;6.214;2023-11-22T03:12:09;6.00;87.60
54938;DHT22;52756;52.826;6.214;2023-11-22T03:14:35;6.00;87.80
54938;DHT22;52756;52.826;6.214;2023-11-22T03:17:01;6.00;87.80
54938;DHT22;52756;52.826;6.214;2023-11-22T03:19:27;6.10;87.90
54938;DHT22;52756;52.826;6.214;2023-11-22T03:21:52;5.90;87.80
54938;DHT22;52756;52.826;6.214;2023-11-22T03:24:18;5.90;87.80
54938;DHT22;52756;52.826;6.214;2023-11-22T03:26:43;5.90;87.70
54938;DHT22;52756;52.826;6.214;2023-11-22T03:29:10;5.90;87.70
54938;DHT22;52756;52.826;6.214;2023-11-22T03:31:37;5.90;87.70
54938;DHT22;52756;52.826;6.214;2023-11-22T03:34:04;5.80;87.40
54938;DHT22;52756;52.826;6.214;2023-11-22T03:36:30;5.90;87.40
54938;DHT22;52756;52.826;6.214;2023-11-22T03:38:56;5.80;87.70
54938;DHT22;52756;52.826;6.214;2023-11-22T03:41:21;5.80;87.30
54938;DHT22;52756;52.826;6.214;2023-11-22T03:43:47;5.70;87.20
54938;DHT22;52756;52.826;6.214;2023-11-22T03:46:12;5.70;87.10
54938;DHT22;52756;52.826;6.214;2023-11-22T03:48:38;5.70;87.20
54938;DHT22;52756;52.826;6.214;2023-11-22T03:51:04;5.70;87.20
54938;DHT22;52756;52.826;6.214;2023-11-22T03:53:29;5.70;87.20
54938;DHT22;52756;52.826;6.214;2023-11-22T03:55:55;5.70;87.20
54938;DHT22;52756;52.826;6.214;2023-11-22T03:58:21;5.60;87.20
54938;DHT22;52756;52.826;6.214;2023-11-22T04:00:47;5.60;87.30
54938;DHT22;52756;52.826;6.214;2023-11-22T04:03:12;5.60;87.30
54938;DHT22;52756;52.826;6.214;2023-11-22T04:05:38;5.60;87.30
54938;DHT22;52756;52.826;6.214;2023-11-22T04:08:04;6.00;87.60
54938;DHT22;52756;52.826;6.214;2023-11-22T04:10:29;5.60;87.40
54938;DHT22;52756;52.826;6.214;2023-11-22T04:12:56;5.50;87.40
54938;DHT22;52756;52.826;6.214;2023-11-22T04:15:22;5.50;87.40
54938;DHT22;52756;52.826;6.214;2023-11-22T04:17:48;5.50;87.40
54938;DHT22;52756;52.826;6.214;2023-11-22T04:20:14;5.50;87.40
54938;DHT22;52756;52.826;6.214;2023-11-22T04:22:41;5.50;87.40
54938;DHT22;52756;52.826;6.214;2023-11-22T04:25:07;5.50;87.40
54938;DHT22;52756;52.826;6.214;2023-11-22T04:27:34;5.40;87.30
54938;DHT22;52756;52.826;6.214;2023-11-22T04:30:00;5.40;87.40
54938;DHT22;52756;52.826;6.214;2023-11-22T04:32:25;5.40;87.30
54938;DHT22;52756;52.826;6.214;2023-11-22T04:34:51;5.40;87.20
54938;DHT22;52756;52.826;6.214;2023-11-22T04:37:17;5.40;87.20
54938;DHT22;52756;52.826;6.214;2023-11-22T04:39:42;5.40;87.10
54938;DHT22;52756;52.826;6.214;2023-11-22T04:42:08;5.60;87.20
54938;DHT22;52756;52.826;6.214;2023-11-22T04:44:34;5.30;87.00
54938;DHT22;52756;52.826;6.214;2023-11-22T04:46:59;5.30;87.00
54938;DHT22;52756;52.826;6.214;2023-11-22T04:49:25;5.30;87.00
54938;DHT22;52756;52.826;6.214;2023-11-22T04:51:51;5.30;87.00
54938;DHT22;52756;52.826;6.214;2023-11-22T04:54:17;5.30;87.00
54938;DHT22;52756;52.826;6.214;2023-11-22T04:56:42;5.30;87.10
54938;DHT22;52756;52.826;6.214;2023-11-22T04:59:08;5.70;87.40
54938;DHT22;52756;52.826;6.214;2023-11-22T05:01:34;5.20;87.10
54938;DHT22;52756;52.826;6.214;2023-11-22T05:04:00;5.20;87.10
54938;DHT22;52756;52.826;6.214;2023-11-22T05:06:26;5.20;87.20
54938;DHT22;52756;52.826;6.214;2023-11-22T05:08:55;5.20;87.10
54938;DHT22;52756;52.826;6.214;2023-11-22T05:11:21;5.10;86.90
54938;DHT22;52756;52.826;6.214;2023-11-22T05:13:47;5.10;86.80
54938;DHT22;52756;52.826;6.214;2023-11-22T05:16:12;5.10;86.80
54938;DHT22;52756;52.826;6.214;2023-11-22T05:18:38;5.10;86.80
54938;DHT22;52756;52.826;6.214;2023-11-22T05:21:04;5.10;86.90
54938;DHT22;52756;52.826;6.214;2023-11-22T05:23:30;5.10;86.90
54938;DHT22;52756;52.826;6.214;2023-11-22T05:25:58;5.10;87.00
54938;DHT22;52756;52.826;6.214;2023-11-22T05:28:25;5.00;87.00
54938;DHT22;52756;52.826;6.214;2023-11-22T05:30:51;5.10;87.10
54938;DHT22;52756;52.826;6.214;2023-11-22T05:33:17;5.00;87.00
54938;DHT22;52756;52.826;6.214;2023-11-22T05:35:42;5.00;87.10
54938;DHT22;52756;52.826;6.214;2023-11-22T05:38:08;5.00;87.00
54938;DHT22;52756;52.826;6.214;2023-11-22T05:40:34;5.00;87.00
54938;DHT22;52756;52.826;6.214;2023-11-22T05:43:00;5.00;87.00
54938;DHT22;52756;52.826;6.214;2023-11-22T05:45:25;5.00;87.10
54938;DHT22;52756;52.826;6.214;2023-11-22T05:47:51;4.90;87.20
54938;DHT22;52756;52.826;6.214;2023-11-22T05:50:17;5.00;87.30
54938;DHT22;52756;52.826;6.214;2023-11-22T05:52:45;5.00;87.30
54938;DHT22;52756;52.826;6.214;2023-11-22T05:55:11;5.00;87.50
54938;DHT22;52756;52.826;6.214;2023-11-22T05:57:39;5.00;87.50
54938;DHT22;52756;52.826;6.214;2023-11-22T06:00:07;4.90;87.50
54938;DHT22;52756;52.826;6.214;2023-11-22T06:02:36;5.00;87.60
54938;DHT22;52756;52.826;6.214;2023-11-22T06:05:04;5.00;87.60
54938;DHT22;52756;52.826;6.214;2023-11-22T06:07:31;4.90;87.20
54938;DHT22;52756;52.826;6.214;2023-11-22T06:09:57;4.90;87.00
54938;DHT22;52756;52.826;6.214;2023-11-22T06:12:23;4.90;87.00
54938;DHT22;52756;52.826;6.214;2023-11-22T06:14:48;4.90;87.10
54938;DHT22;52756;52.826;6.214;2023-11-22T06:17:14;4.90;87.20
54938;DHT22;52756;52.826;6.214;2023-11-22T06:19:40;4.90;87.30
54938;DHT22;52756;52.826;6.214;2023-11-22T06:22:07;4.90;87.30
54938;DHT22;52756;52.826;6.214;2023-11-22T06:24:33;4.90;87.40
54938;DHT22;52756;52.826;6.214;2023-11-22T06:27:02;4.90;87.40
54938;DHT22;52756;52.826;6.214;2023-11-22T06:29:27;4.90;87.20
54938;DHT22;52756;52.826;6.214;2023-11-22T06:31:54;4.90;86.80
54938;DHT22;52756;52.826;6.214;2023-11-22T06:34:20;4.80;86.60
54938;DHT22;52756;52.826;6.214;2023-11-22T06:36:45;4.80;86.50
54938;DHT22;52756;52.826;6.214;2023-11-22T06:39:11;4.80;86.60
54938;DHT22;52756;52.826;6.214;2023-11-22T06:41:41;4.80;86.80
54938;DHT22;52756;52.826;6.214;2023-11-22T06:44:06;4.80;86.90
54938;DHT22;52756;52.826;6.214;2023-11-22T06:46:32;4.80;87.00
54938;DHT22;52756;52.826;6.214;2023-11-22T06:48:58;5.20;87.20
54938;DHT22;52756;52.826;6.214;2023-11-22T06:51:24;4.80;86.90
54938;DHT22;52756;52.826;6.214;2023-11-22T06:53:50;4.80;86.90
54938;DHT22;52756;52.826;6.214;2023-11-22T06:56:17;5.30;87.20
54938;DHT22;52756;52.826;6.214;2023-11-22T06:58:43;5.50;87.40
54938;DHT22;52756;52.826;6.214;2023-11-22T07:01:09;4.80;86.80
54938;DHT22;52756;52.826;6.214;2023-11-22T07:03:36;4.80;86.80
54938;DHT22;52756;52.826;6.214;2023-11-22T07:06:03;4.70;86.60
54938;DHT22;52756;52.826;6.214;2023-11-22T07:08:30;4.70;86.60
54938;DHT22;52756;52.826;6.214;2023-11-22T07:10:56;5.00;86.80
54938;DHT22;52756;52.826;6.214;2023-11-22T07:13:22;4.70;86.70
54938;DHT22;52756;52.826;6.214;2023-11-22T07:15:48;5.00;87.30
54938;DHT22;52756;52.826;6.214;2023-11-22T07:18:14;5.20;87.00
54938;DHT22;52756;52.826;6.214;2023-11-22T07:20:40;4.60;86.70
54938;DHT22;52756;52.826;6.214;2023-11-22T07:23:05;4.70;86.70
54938;DHT22;52756;52.826;6.214;2023-11-22T07:25:31;4.70;86.50
54938;DHT22;52756;52.826;6.214;2023-11-22T07:27:57;4.60;86.50
54938;DHT22;52756;52.826;6.214;2023-11-22T07:30:24;4.60;86.50
54938;DHT22;52756;52.826;6.214;2023-11-22T07:32:53;4.60;86.30
54938;DHT22;52756;52.826;6.214;2023-11-22T07:35:18;4.60;86.20
54938;DHT22;52756;52.826;6.214;2023-11-22T07:37:47;4.60;86.30
54938;DHT22;52756;52.826;6.214;2023-11-22T07:40:14;4.60;86.40
54938;DHT22;52756;52.826;6.214;2023-11-22T07:42:40;4.50;86.30
54938;DHT22;52756;52.826;6.214;2023-11-22T07:45:07;4.80;86.70
54938;DHT22;52756;52.826;6.214;2023-11-22T07:47:32;4.50;86.60
54938;DHT22;52756;52.826;6.214;2023-11-22T07:49:58;5.00;87.10
54938;DHT22;52756;52.826;6.214;2023-11-22T07:52:24;5.10;87.30
54938;DHT22;52756;52.826;6.214;2023-11-22T07:54:56;4.60;87.10
54938;DHT22;52756;52.826;6.214;2023-11-22T07:57:22;4.60;87.00
54938;DHT22;52756;52.826;6.214;2023-11-22T07:59:49;4.50;86.80
54938;DHT22;52756;52.826;6.214;2023-11-22T08:02:15;4.50;87.00
54938;DHT22;52756;52.826;6.214;2023-11-22T08:04:44;4.50;87.10
54938;DHT22;52756;52.826;6.214;2023-11-22T08:07:10;4.50;87.20
54938;DHT22;52756;52.826;6.214;2023-11-22T08:09:43;4.50;87.00
54938;DHT22;52756;52.826;6.214;2023-11-22T08:12:11;4.50;86.70
54938;DHT22;52756;52.826;6.214;2023-11-22T08:14:38;4.50;86.50
54938;DHT22;52756;52.826;6.214;2023-11-22T08:17:06;4.40;86.30
54938;DHT22;52756;52.826;6.214;2023-11-22T08:19:32;4.40;86.40
54938;DHT22;52756;52.826;6.214;2023-11-22T08:21:57;4.30;86.60
54938;DHT22;52756;52.826;6.214;2023-11-22T08:24:23;4.50;87.00
54938;DHT22;52756;52.826;6.214;2023-11-22T08:26:49;4.30;87.20
54938;DHT22;52756;52.826;6.214;2023-11-22T08:29:17;4.30;87.40
54938;DHT22;52756;52.826;6.214;2023-11-22T08:31:43;4.30;87.60
54938;DHT22;52756;52.826;6.214;2023-11-22T08:34:08;4.30;87.60
54938;DHT22;52756;52.826;6.214;2023-11-22T08:36:34;4.30;87.60
54938;DHT22;52756;52.826;6.214;2023-11-22T08:39:00;4.40;87.70
54938;DHT22;52756;52.826;6.214;2023-11-22T08:41:27;4.30;87.60
54938;DHT22;52756;52.826;6.214;2023-11-22T08:43:55;4.30;87.40
54938;DHT22;52756;52.826;6.214;2023-11-22T08:46:21;4.30;87.40
54938;DHT22;52756;52.826;6.214;2023-11-22T08:48:47;4.30;87.40
54938;DHT22;52756;52.826;6.214;2023-11-22T08:51:16;4.20;87.40
54938;DHT22;52756;52.826;6.214;2023-11-22T08:53:41;4.20;87.60
54938;DHT22;52756;52.826;6.214;2023-11-22T08:56:09;4.20;87.80
54938;DHT22;52756;52.826;6.214;2023-11-22T08:58:37;4.20;88.00
54938;DHT22;52756;52.826;6.214;2023-11-22T09:01:04;4.20;88.20
54938;DHT22;52756;52.826;6.214;2023-11-22T09:03:31;4.30;88.30
54938;DHT22;52756;52.826;6.214;2023-11-22T09:05:56;4.20;88.30
54938;DHT22;52756;52.826;6.214;2023-11-22T09:08:23;4.30;88.90
54938;DHT22;52756;52.826;6.214;2023-11-22T09:10:48;4.30;88.50
54938;DHT22;52756;52.826;6.214;2023-11-22T09:13:16;4.20;88.50
54938;DHT22;52756;52.826;6.214;2023-11-22T09:15:45;4.20;88.60
54938;DHT22;52756;52.826;6.214;2023-11-22T09:18:11;4.30;88.90
54938;DHT22;52756;52.826;6.214;2023-11-22T09:20:38;4.30;89.00
54938;DHT22;52756;52.826;6.214;2023-11-22T09:23:04;4.20;89.00
54938;DHT22;52756;52.826;6.214;2023-11-22T09:25:30;4.30;89.20
54938;DHT22;52756;52.826;6.214;2023-11-22T09:27:58;4.30;89.30
54938;DHT22;52756;52.826;6.214;2023-11-22T09:30:29;4.30;89.30
54938;DHT22;52756;52.826;6.214;2023-11-22T09:32:59;4.30;89.50
54938;DHT22;52756;52.826;6.214;2023-11-22T09:35:25;4.30;89.50
54938;DHT22;52756;52.826;6.214;2023-11-22T09:37:51;4.30;89.60
54938;DHT22;52756;52.826;6.214;2023-11-22T09:40:19;4.40;89.80
54938;DHT22;52756;52.826;6.214;2023-11-22T09:42:47;4.40;90.00
54938;DHT22;52756;52.826;6.214;2023-11-22T09:45:17;4.40;90.00
54938;DHT22;52756;52.826;6.214;2023-11-22T09:47:44;4.50;90.00
54938;DHT22;52756;52.826;6.214;2023-11-22T09:53:01;4.50;90.10
54938;DHT22;52756;52.826;6.214;2023-11-22T09:55:29;4.60;90.10
54938;DHT22;52756;52.826;6.214;2023-11-22T09:57:58;4.60;90.10
54938;DHT22;52756;52.826;6.214;2023-11-22T10:00:29;4.60;90.10
54938;DHT22;52756;52.826;6.214;2023-11-22T10:02:58;4.70;90.10
54938;DHT22;52756;52.826;6.214;2023-11-22T10:05:26;4.70;90.10
54938;DHT22;52756;52.826;6.214;2023-11-22T10:07:54;4.70;90.10
54938;DHT22;52756;52.826;6.214;2023-11-22T10:10:21;4.70;90.10
54938;DHT22;52756;52.826;6.214;2023-11-22T10:12:54;4.80;90.20
54938;DHT22;52756;52.826;6.214;2023-11-22T10:15:22;4.80;90.20
54938;DHT22;52756;52.826;6.214;2023-11-22T10:17:57;4.80;90.10
54938;DHT22;52756;52.826;6.214;2023-11-22T10:20:36;4.90;90.20
54938;DHT22;52756;52.826;6.214;2023-11-22T10:23:02;4.90;90.20
54938;DHT22;52756;52.826;6.214;2023-11-22T10:25:29;5.00;90.30
54938;DHT22;52756;52.826;6.214;2023-11-22T10:27:55;5.00;90.40
54938;DHT22;52756;52.826;6.214;2023-11-22T10:30:20;5.10;90.40
54938;DHT22;52756;52.826;6.214;2023-11-22T10:32:46;5.20;90.40
54938;DHT22;52756;52.826;6.214;2023-11-22T10:35:12;5.20;90.40
54938;DHT22;52756;52.826;6.214;2023-11-22T10:37:41;5.30;90.40
54938;DHT22;52756;52.826;6.214;2023-11-22T10:40:30;5.30;90.30
54938;DHT22;52756;52.826;6.214;2023-11-22T10:42:56;5.40;90.30
54938;DHT22;52756;52.826;6.214;2023-11-22T10:45:23;5.40;90.20
54938;DHT22;52756;52.826;6.214;2023-11-22T10:47:49;5.40;90.00
54938;DHT22;52756;52.826;6.214;2023-11-22T10:50:17;5.50;89.60
54938;DHT22;52756;52.826;6.214;2023-11-22T10:52:42;6.10;89.60
54938;DHT22;52756;52.826;6.214;2023-11-22T10:55:11;5.60;89.00
54938;DHT22;52756;52.826;6.214;2023-11-22T10:57:44;5.60;88.70
54938;DHT22;52756;52.826;6.214;2023-11-22T11:00:14;5.70;88.50
54938;DHT22;52756;52.826;6.214;2023-11-22T11:02:44;5.70;88.30
54938;DHT22;52756;52.826;6.214;2023-11-22T11:05:15;5.70;88.10
54938;DHT22;52756;52.826;6.214;2023-11-22T11:07:48;5.80;87.80
54938;DHT22;52756;52.826;6.214;2023-11-22T11:10:15;5.80;87.20
54938;DHT22;52756;52.826;6.214;2023-11-22T11:12:41;5.80;86.50
54938;DHT22;52756;52.826;6.214;2023-11-22T11:15:09;5.90;86.40
54938;DHT22;52756;52.826;6.214;2023-11-22T11:17:35;5.90;86.10
54938;DHT22;52756;52.826;6.214;2023-11-22T11:20:04;5.90;85.60
54938;DHT22;52756;52.826;6.214;2023-11-22T11:22:32;5.90;84.80
54938;DHT22;52756;52.826;6.214;2023-11-22T11:25:04;6.60;85.20
54938;DHT22;52756;52.826;6.214;2023-11-22T11:27:34;6.00;84.60
54938;DHT22;52756;52.826;6.214;2023-11-22T11:32:57;6.10;84.70
54938;DHT22;52756;52.826;6.214;2023-11-22T11:35:47;6.10;84.90
54938;DHT22;52756;52.826;6.214;2023-11-22T11:38:14;6.10;84.60
54938;DHT22;52756;52.826;6.214;2023-11-22T11:40:41;6.10;84.30
54938;DHT22;52756;52.826;6.214;2023-11-22T11:43:09;6.20;84.70
54938;DHT22;52756;52.826;6.214;2023-11-22T11:45:40;6.30;84.40
54938;DHT22;52756;52.826;6.214;2023-11-22T11:48:12;6.30;84.10
54938;DHT22;52756;52.826;6.214;2023-11-22T11:50:37;6.30;84.10
54938;DHT22;52756;52.826;6.214;2023-11-22T11:53:03;6.40;84.20
54938;DHT22;52756;52.826;6.214;2023-11-22T11:55:30;6.80;84.40
54938;DHT22;52756;52.826;6.214;2023-11-22T11:57:56;6.50;84.20
54938;DHT22;52756;52.826;6.214;2023-11-22T12:00:22;6.50;83.70
54938;DHT22;52756;52.826;6.214;2023-11-22T12:02:50;6.50;83.60
54938;DHT22;52756;52.826;6.214;2023-11-22T12:05:18;6.60;83.30
54938;DHT22;52756;52.826;6.214;2023-11-22T12:07:45;6.60;82.50
54938;DHT22;52756;52.826;6.214;2023-11-22T12:10:11;6.60;82.40
54938;DHT22;52756;52.826;6.214;2023-11-22T12:12:36;6.60;82.30
54938;DHT22;52756;52.826;6.214;2023-11-22T12:15:03;6.60;82.20
54938;DHT22;52756;52.826;6.214;2023-11-22T12:17:29;6.60;82.00
54938;DHT22;52756;52.826;6.214;2023-11-22T12:20:15;6.70;81.90
54938;DHT22;52756;52.826;6.214;2023-11-22T12:22:43;6.70;81.60
54938;DHT22;52756;52.826;6.214;2023-11-22T12:25:11;6.70;82.00
54938;DHT22;52756;52.826;6.214;2023-11-22T12:27:43;6.70;81.60
54938;DHT22;52756;52.826;6.214;2023-11-22T12:30:36;6.70;81.30
54938;DHT22;52756;52.826;6.214;2023-11-22T12:33:10;6.70;81.40
54938;DHT22;52756;52.826;6.214;2023-11-22T12:35:36;6.70;81.00
54938;DHT22;52756;52.826;6.214;2023-11-22T12:38:04;6.70;80.80
54938;DHT22;52756;52.826;6.214;2023-11-22T12:40:31;6.80;80.40
54938;DHT22;52756;52.826;6.214;2023-11-22T12:43:03;6.30;80.00
54938;DHT22;52756;52.826;6.214;2023-11-22T12:45:30;6.70;80.20
54938;DHT22;52756;52.826;6.214;2023-11-22T12:47:59;6.70;80.10
54938;DHT22;52756;52.826;6.214;2023-11-22T12:50:32;6.70;80.00
54938;DHT22;52756;52.826;6.214;2023-11-22T12:53:14;6.70;79.70
54938;DHT22;52756;52.826;6.214;2023-11-22T12:55:45;6.70;79.20
54938;DHT22;52756;52.826;6.214;2023-11-22T12:58:12;6.70;79.30
54938;DHT22;52756;52.826;6.214;2023-11-22T13:00:38;6.60;79.20
54938;DHT22;52756;52.826;6.214;2023-11-22T13:03:08;6.70;79.40
54938;DHT22;52756;52.826;6.214;2023-11-22T13:05:38;6.60;79.40
54938;DHT22;52756;52.826;6.214;2023-11-22T13:08:04;6.70;79.60
54938;DHT22;52756;52.826;6.214;2023-11-22T13:10:30;6.60;79.50
54938;DHT22;52756;52.826;6.214;2023-11-22T13:12:59;6.70;79.50
54938;DHT22;52756;52.826;6.214;2023-11-22T13:15:26;7.20;79.80
54938;DHT22;52756;52.826;6.214;2023-11-22T13:17:52;6.60;79.60
54938;DHT22;52756;52.826;6.214;2023-11-22T13:20:26;7.20;80.10
54938;DHT22;52756;52.826;6.214;2023-11-22T13:22:53;6.60;79.90
54938;DHT22;52756;52.826;6.214;2023-11-22T13:25:20;7.10;80.40
54938;DHT22;52756;52.826;6.214;2023-11-22T13:27:46;7.10;80.50
54938;DHT22;52756;52.826;6.214;2023-11-22T13:30:14;7.20;80.70
54938;DHT22;52756;52.826;6.214;2023-11-22T13:32:40;6.60;80.50
54938;DHT22;52756;52.826;6.214;2023-11-22T13:35:08;7.10;81.00
54938;DHT22;52756;52.826;6.214;2023-11-22T13:37:41;6.60;81.00
54938;DHT22;52756;52.826;6.214;2023-11-22T13:40:09;7.10;81.50
54938;DHT22;52756;52.826;6.214;2023-11-22T13:42:43;6.60;81.50
54938;DHT22;52756;52.826;6.214;2023-11-22T13:45:10;7.00;82.00
54938;DHT22;52756;52.826;6.214;2023-11-22T13:47:43;6.80;82.20
54938;DHT22;52756;52.826;6.214;2023-11-22T13:50:17;6.50;82.20
54938;DHT22;52756;52.826;6.214;2023-11-22T13:52:46;6.50;82.50
54938;DHT22;52756;52.826;6.214;2023-11-22T13:55:11;7.10;83.20
54938;DHT22;52756;52.826;6.214;2023-11-22T13:57:38;7.00;83.30
54938;DHT22;52756;52.826;6.214;2023-11-22T14:00:08;6.90;83.40
54938;DHT22;52756;52.826;6.214;2023-11-22T14:02:36;6.40;83.40
54938;DHT22;52756;52.826;6.214;2023-11-22T14:05:03;6.40;83.60
54938;DHT22;52756;52.826;6.214;2023-11-22T14:07:36;6.40;83.80
54938;DHT22;52756;52.826;6.214;2023-11-22T14:10:03;6.90;84.40
54938;DHT22;52756;52.826;6.214;2023-11-22T14:12:30;6.40;84.30
54938;DHT22;52756;52.826;6.214;2023-11-22T14:14:56;6.40;84.40
54938;DHT22;52756;52.826;6.214;2023-11-22T14:17:22;6.40;84.40
54938;DHT22;52756;52.826;6.214;2023-11-22T14:19:49;6.40;84.70
54938;DHT22;52756;52.826;6.214;2023-11-22T14:22:15;6.30;84.80
54938;DHT22;52756;52.826;6.214;2023-11-22T14:24:42;6.30;84.90
54938;DHT22;52756;52.826;6.214;2023-11-22T14:27:10;6.30;85.10
54938;DHT22;52756;52.826;6.214;2023-11-22T14:29:36;6.30;85.20
54938;DHT22;52756;52.826;6.214;2023-11-22T14:32:02;6.30;85.50
54938;DHT22;52756;52.826;6.214;2023-11-22T14:34:28;6.30;85.50
54938;DHT22;52756;52.826;6.214;2023-11-22T14:36:54;6.30;85.60
54938;DHT22;52756;52.826;6.214;2023-11-22T14:39:20;6.30;85.70
54938;DHT22;52756;52.826;6.214;2023-11-22T14:41:46;6.80;86.00
54938;DHT22;52756;52.826;6.214;2023-11-22T14:44:12;6.20;85.70
54938;DHT22;52756;52.826;6.214;2023-11-22T14:46:38;6.20;85.80
54938;DHT22;52756;52.826;6.214;2023-11-22T14:49:04;6.20;85.90
54938;DHT22;52756;52.826;6.214;2023-11-22T14:51:31;6.20;85.80
54938;DHT22;52756;52.826;6.214;2023-11-22T14:53:59;6.20;85.80
54938;DHT22;52756;52.826;6.214;2023-11-22T14:56:24;6.20;85.80
54938;DHT22;52756;52.826;6.214;2023-11-22T14:58:50;6.20;85.70
54938;DHT22;52756;52.826;6.214;2023-11-22T15:01:22;6.00;85.50
54938;DHT22;52756;52.826;6.214;2023-11-22T15:03:54;6.20;85.50
54938;DHT22;52756;52.826;6.214;2023-11-22T15:06:20;6.10;85.30
54938;DHT22;52756;52.826;6.214;2023-11-22T15:08:46;6.10;85.20
54938;DHT22;52756;52.826;6.214;2023-11-22T15:11:13;6.10;85.10
54938;DHT22;52756;52.826;6.214;2023-11-22T15:13:46;6.10;85.10
54938;DHT22;52756;52.826;6.214;2023-11-22T15:16:12;6.10;85.10
54938;DHT22;52756;52.826;6.214;2023-11-22T15:18:38;6.10;85.10
54938;DHT22;52756;52.826;6.214;2023-11-22T15:21:05;6.20;85.20
54938;DHT22;52756;52.826;6.214;2023-11-22T15:23:31;6.10;85.10
54938;DHT22;52756;52.826;6.214;2023-11-22T15:25:57;6.10;85.20
54938;DHT22;52756;52.826;6.214;2023-11-22T15:28:24;6.00;85.20
54938;DHT22;52756;52.826;6.214;2023-11-22T15:30:50;6.10;85.20
54938;DHT22;52756;52.826;6.214;2023-11-22T15:33:24;6.00;85.10
54938;DHT22;52756;52.826;6.214;2023-11-22T15:35:50;6.00;85.20
54938;DHT22;52756;52.826;6.214;2023-11-22T15:38:15;6.00;85.10
54938;DHT22;52756;52.826;6.214;2023-11-22T15:40:41;6.00;85.10
54938;DHT22;52756;52.826;6.214;2023-11-22T15:43:08;6.00;85.00
54938;DHT22;52756;52.826;6.214;2023-11-22T15:45:34;6.00;85.10
54938;DHT22;52756;52.826;6.214;2023-11-22T15:48:01;6.00;85.10
54938;DHT22;52756;52.826;6.214;2023-11-22T15:50:27;6.00;85.00